Time;durP1;ratioP1;P1;durP2;ratioP2;P2;SDS_P1;SDS_P2;PMS_P1;PMS_P2;Temp;Humidity;BMP_temperature;BMP_pressure;BME280_temperature;BME280_humidity;BME280_pressure;Samples;Min_cycle;Max_cycle;Signal;HPM_P1;HPM_P2
2021/12/15 00:02:27;;;;;;;;;;;;;;;20.41;36.48;101716.11;97662;1408;61735;-84
2021/12/15 00:05:20;;;;;;;;;;;;;;;;;;;;;
2021/12/15 00:08:57;;;;;;;;;;;;;;;20.40;36.57;101721.67;97275;1413;73740;-84
2021/12/15 00:15:50;;;;;;;;;;;;;;;20.40;36.74;101730.47;96722;1421;62220;-84
2021/12/15 00:18:35;;;;;;;;;;;;;;;20.40;36.50;101726.70;96425;1425;74092;-84
2021/12/15 00:21:32;;;;;;;;;;;;;;;20.40;36.47;101729.05;96244;1430;75072;-84
2021/12/15 00:25:06;;;;;;;;;;;;;;;20.40;36.58;101734.42;96339;1422;61187;-84
2021/12/15 00:27:57;;;;;;;;;;;;;;;;;;;;;
2021/12/15 00:37:30;;;;;;;;;;;;;;;20.39;36.55;101728.02;96335;1424;61563;-83
2021/12/15 00:40:38;;;;;;;;;;;;;;;20.38;36.56;101727.88;96585;1422;61458;-84
2021/12/15 00:43:34;;;;;;;;;;;;;;;;;;;;;
2021/12/15 00:46:50;;;;;;;;;;;;;;;20.38;36.61;101719.86;96292;1429;73630;-83
2021/12/15 00:49:51;;;;;;;;;;;;;;;20.38;36.68;101718.42;96361;1427;61483;-85
2021/12/15 00:53:04;;;;;;;;;;;;;;;;;;;;;
2021/12/15 00:56:13;;;;;;;;;;;;;;;20.38;36.79;101719.70;96431;1419;73271;-84
2021/12/15 00:59:16;;;;;;;;;;;;;;;;;;;;;
2021/12/15 01:02:37;;;;;;;;;;;;;;;;;;;;;
2021/12/15 01:05:36;;;;;;;;;;;;;;;20.38;36.60;101712.89;97410;1407;61758;-84
2021/12/15 01:08:40;;;;;;;;;;;;;;;;;;;;;
2021/12/15 01:22:24;;;;;;;;;;;;;;;;;;;;;
2021/12/15 01:26:02;;;;;;;;;;;;;;;;;;;;;
2021/12/15 01:29:16;;;;;;;;;;;;;;;;;;;;;
2021/12/15 01:32:31;;;;;;;;;;;;;;;20.35;36.81;101699.42;97842;1405;61366;-84
2021/12/15 01:49:03;;;;;;;;;;;;;;;20.35;36.81;101686.81;97257;1411;74412;-84
2021/12/15 01:55:56;;;;;;;;;;;;;;;20.34;36.87;101677.89;96991;1415;61364;-83
2021/12/15 01:58:43;;;;;;;;;;;;;;;20.34;36.78;101679.69;96915;1414;61399;-83
2021/12/15 02:05:06;;;;;;;;;;;;;;;20.33;36.72;101683.83;96830;1417;75941;-83
2021/12/15 02:08:36;;;;;;;;;;;;;;;20.33;36.81;101688.13;96853;1413;61866;-83
2021/12/15 02:11:26;;;;;;;;;;;;;;;20.33;36.66;101688.85;96860;1413;61330;-83
2021/12/15 02:14:43;;;;;;;;;;;;;;;;;;;;;
2021/12/15 02:21:42;;;;;;;;;;;;;;;;;;;;;
2021/12/15 02:24:51;;;;;;;;;;;;;;;;;;;;;
2021/12/15 02:28:07;;;;;;;;;;;;;;;;;;;;;
2021/12/15 02:45:09;;;;;;;;;;;;;;;20.30;36.80;101666.10;99457;1385;59282;-83
2021/12/15 02:52:06;;;;;;;;;;;;;;;20.30;36.83;101668.98;98905;1387;71313;-83
2021/12/15 02:54:44;;;;;;;;;;;;;;;;;;;;;
2021/12/15 03:05:04;;;;;;;;;;;;;;;;;;;;;
2021/12/15 03:22:42;;;;;;;;;;;;;;;20.28;36.87;101663.91;98409;1399;60098;-83
2021/12/15 03:25:11;;;;;;;;;;;;;;;20.27;36.86;101663.05;98474;1396;60599;-83
2021/12/15 03:38:35;;;;;;;;;;;;;;;;;;;;;
2021/12/15 03:41:55;;;;;;;;;;;;;;;;;;;;;
2021/12/15 03:48:22;;;;;;;;;;;;;;;;;;;;;
2021/12/15 03:51:19;;;;;;;;;;;;;;;;;;;;;
2021/12/15 03:54:14;;;;;;;;;;;;;;;20.25;36.86;101666.58;99583;1383;72711;-83
2021/12/15 04:00:45;;;;;;;;;;;;;;;20.24;36.86;101671.08;98875;1395;59816;-83
2021/12/15 04:04:11;;;;;;;;;;;;;;;;;;;;;
2021/12/15 04:07:13;;;;;;;;;;;;;;;;;;;;;
2021/12/15 04:10:39;;;;;;;;;;;;;;;;;;;;;
2021/12/15 04:13:46;;;;;;;;;;;;;;;;;;;;;
2021/12/15 04:20:53;;;;;;;;;;;;;;;20.23;36.91;101672.19;97334;1408;71690;-82
2021/12/15 04:27:14;;;;;;;;;;;;;;;;;;;;;
2021/12/15 04:30:43;;;;;;;;;;;;;;;20.23;36.91;101674.52;96879;1418;59675;-83
2021/12/15 04:33:36;;;;;;;;;;;;;;;;;;;;;
2021/12/15 04:40:51;;;;;;;;;;;;;;;20.22;36.83;101683.73;97285;1410;59652;-82
2021/12/15 04:43:41;;;;;;;;;;;;;;;;;;;;;
2021/12/15 04:46:56;;;;;;;;;;;;;;;;;;;;;
2021/12/15 04:50:27;;;;;;;;;;;;;;;20.21;36.86;101686.29;97661;1405;72079;-83
2021/12/15 04:53:45;;;;;;;;;;;;;;;;;;;;;
2021/12/15 04:56:51;;;;;;;;;;;;;;;20.20;36.80;101684.90;98665;1395;62157;-84
2021/12/15 05:00:42;;;;;;;;;;;;;;;20.19;36.76;101687.80;98720;1389;70611;-83
2021/12/15 05:03:43;;;;;;;;;;;;;;;;;;;;;
2021/12/15 05:06:41;;;;;;;;;;;;;;;;;;;;;
2021/12/15 05:10:00;;;;;;;;;;;;;;;;;;;;;
2021/12/15 05:13:19;;;;;;;;;;;;;;;;;;;;;
2021/12/15 05:16:16;;;;;;;;;;;;;;;;;;;;;
2021/12/15 05:19:09;;;;;;;;;;;;;;;20.11;36.41;101696.27;98320;1396;61473;-83
2021/12/15 05:25:59;;;;;;;;;;;;;;;20.05;36.21;101693.73;97695;1404;72887;-81
2021/12/15 05:29:13;;;;;;;;;;;;;;;;;;;;;
2021/12/15 05:31:51;;;;;;;;;;;;;;;20.00;36.12;101688.06;97492;1402;60702;-82
2021/12/15 05:34:49;;;;;;;;;;;;;;;20.00;36.11;101692.20;97459;1406;61776;-82
2021/12/15 05:37:37;;;;;;;;;;;;;;;;;;;;;
2021/12/15 05:40:43;;;;;;;;;;;;;;;;;;;;;
2021/12/15 05:44:08;;;;;;;;;;;;;;;19.99;35.89;101694.39;98615;1389;59654;-81
2021/12/15 05:47:03;;;;;;;;;;;;;;;19.99;35.88;101692.98;98470;1389;61436;-81
2021/12/15 05:49:46;;;;;;;;;;;;;;;19.98;35.81;101689.28;98169;1391;73205;-82
2021/12/15 05:52:44;;;;;;;;;;;;;;;19.97;35.82;101690.56;98205;1390;73273;-82
2021/12/15 05:55:10;;;;;;;;;;;;;;;19.96;35.80;101692.07;98688;1377;61587;-81
2021/12/15 05:57:39;;;;;;;;;;;;;;;19.95;35.71;101701.23;98889;1377;60462;-81
2021/12/15 06:00:09;;;;;;;;;;;;;;;19.94;35.66;101705.92;98894;1373;72741;-81
2021/12/15 06:02:35;;;;;;;;;;;;;;;19.91;35.68;101706.92;100346;1374;73099;-81
2021/12/15 06:05:01;;;;;;;;;;;;;;;19.90;35.59;101702.89;100530;1371;59114;-81
2021/12/15 06:07:27;;;;;;;;;;;;;;;19.89;35.59;101702.42;100840;1370;58052;-81
2021/12/15 06:09:53;;;;;;;;;;;;;;;19.89;35.62;101701.70;100835;1370;58179;-81
2021/12/15 06:12:19;;;;;;;;;;;;;;;19.88;35.53;101706.20;100877;1371;58663;-82
2021/12/15 06:14:45;;;;;;;;;;;;;;;19.88;35.39;101705.52;99962;1368;59853;-80
2021/12/15 06:17:12;;;;;;;;;;;;;;;19.88;35.48;101700.66;99662;1375;60731;-80
2021/12/15 06:19:45;;;;;;;;;;;;;;;19.90;35.37;101702.33;99535;1371;60220;-82
2021/12/15 06:22:23;;;;;;;;;;;;;;;19.95;35.36;101710.34;99557;1372;74302;-80
2021/12/15 06:24:49;;;;;;;;;;;;;;;20.00;35.30;101717.91;99637;1369;60315;-80
2021/12/15 06:27:40;;;;;;;;;;;;;;;20.05;35.17;101710.19;100061;1366;59714;-80
2021/12/15 06:30:07;;;;;;;;;;;;;;;20.10;35.07;101704.36;99931;1365;72847;-79
2021/12/15 06:32:33;;;;;;;;;;;;;;;20.14;35.11;101706.50;99786;1365;60048;-80
2021/12/15 06:35:25;;;;;;;;;;;;;;;20.17;34.99;101708.27;99790;1368;60495;-80
2021/12/15 06:37:53;;;;;;;;;;;;;;;20.22;34.99;101704.42;99506;1368;60374;-81
2021/12/15 06:40:32;;;;;;;;;;;;;;;20.27;35.02;101707.20;99584;1368;73845;-80
2021/12/15 06:42:57;;;;;;;;;;;;;;;20.32;34.96;101711.61;99547;1371;74632;-80
2021/12/15 06:45:34;;;;;;;;;;;;;;;20.36;34.97;101708.36;99721;1369;61510;-80
2021/12/15 06:59:29;;;;;;;;;;;;;;;20.43;35.12;101716.36;99039;1374;61774;-81
2021/12/15 07:02:21;;;;;;;;;;;;;;;20.39;35.14;101718.19;98938;1375;72648;-81
2021/12/15 07:05:02;;;;;;;;;;;;;;;20.39;35.22;101723.91;98539;1380;73413;-80
2021/12/15 07:07:56;;;;;;;;;;;;;;;20.39;35.23;101724.95;98617;1380;60534;-80
2021/12/15 07:10:23;;;;;;;;;;;;;;;20.39;35.20;101728.89;98453;1383;61841;-81
2021/12/15 07:13:01;;;;;;;;;;;;;;;;;;;;;
2021/12/15 07:15:30;;;;;;;;;;;;;;;20.42;35.23;101731.63;98585;1381;73671;-80
2021/12/15 07:18:08;;;;;;;;;;;;;;;20.44;35.21;101738.12;98911;1380;61441;-80
2021/12/15 07:20:51;;;;;;;;;;;;;;;20.47;35.09;101741.54;99200;1378;61898;-80
2021/12/15 07:23:20;;;;;;;;;;;;;;;20.49;35.18;101745.35;100177;1380;73872;-80
2021/12/15 07:25:46;;;;;;;;;;;;;;;20.53;35.24;101747.50;100271;1381;58846;-81
2021/12/15 07:28:12;;;;;;;;;;;;;;;20.55;35.23;101750.95;100150;1384;58576;-81
2021/12/15 07:30:38;;;;;;;;;;;;;;;20.58;35.25;101750.24;100410;1374;58707;-81
2021/12/15 07:33:05;;;;;;;;;;;;;;;20.60;35.31;101750.31;100576;1373;58704;-80
2021/12/15 07:35:32;;;;;;;;;;;;;;;20.63;35.30;101755.20;99266;1375;60874;-81
2021/12/15 07:37:57;;;;;;;;;;;;;;;20.62;35.34;101761.50;99322;1374;60825;-81
2021/12/15 07:40:32;;;;;;;;;;;;;;;20.61;35.34;101762.79;99153;1373;60564;-79
2021/12/15 07:43:09;;;;;;;;;;;;;;;20.58;35.32;101763.66;99736;1369;60628;-80
2021/12/15 07:45:36;;;;;;;;;;;;;;;20.54;35.24;101767.45;99701;1368;74531;-80
2021/12/15 07:48:05;;;;;;;;;;;;;;;20.53;35.15;101770.04;100251;1357;61000;-79
2021/12/15 07:50:34;;;;;;;;;;;;;;;20.53;35.17;101772.36;100518;1359;60646;-80
2021/12/15 07:53:09;;;;;;;;;;;;;;;20.53;35.18;101774.48;100147;1362;72825;-79
2021/12/15 07:55:35;;;;;;;;;;;;;;;20.48;35.16;101781.01;100380;1360;60627;-80
2021/12/15 07:58:02;;;;;;;;;;;;;;;20.41;35.22;101779.77;100133;1362;60694;-80
2021/12/15 08:00:28;;;;;;;;;;;;;;;20.34;35.26;101782.84;100105;1362;59987;-80
2021/12/15 08:03:00;;;;;;;;;;;;;;;20.26;35.38;101782.33;100160;1359;72623;-79
2021/12/15 08:06:03;;;;;;;;;;;;;;;20.16;35.43;101786.95;100858;1351;72771;-79
2021/12/15 08:08:32;;;;;;;;;;;;;;;20.08;35.42;101784.86;102496;1352;59136;-80
2021/12/15 08:10:58;;;;;;;;;;;;;;;20.08;35.53;101783.63;102545;1351;60803;-80
2021/12/15 08:13:26;;;;;;;;;;;;;;;20.12;35.46;101786.13;102327;1354;58844;-80
2021/12/15 08:15:51;;;;;;;;;;;;;;;20.16;35.49;101782.34;101184;1361;76288;-81
2021/12/15 08:18:17;;;;;;;;;;;;;;;20.20;35.55;101779.96;102266;1356;58937;-80
2021/12/15 08:20:43;;;;;;;;;;;;;;;20.26;35.47;101785.92;101495;1354;60539;-80
2021/12/15 08:23:08;;;;;;;;;;;;;;;20.31;35.59;101789.92;101009;1354;60666;-80
2021/12/15 08:25:47;;;;;;;;;;;;;;;20.36;35.44;101791.63;101147;1354;73827;-80
2021/12/15 08:28:43;;;;;;;;;;;;;;;20.40;35.67;101788.92;101972;1354;61380;-80
2021/12/15 08:31:28;;;;;;;;;;;;;;;20.45;35.49;101786.87;101110;1351;61564;-80
2021/12/15 08:34:27;;;;;;;;;;;;;;;;;;;;;
2021/12/15 08:37:17;;;;;;;;;;;;;;;;;;;;;
2021/12/15 08:39:46;;;;;;;;;;;;;;;20.57;35.54;101790.52;101793;1348;60898;-80
2021/12/15 08:42:22;;;;;;;;;;;;;;;20.61;35.62;101794.84;101485;1353;60637;-79
2021/12/15 08:45:31;;;;;;;;;;;;;;;20.64;35.59;101795.52;101243;1348;71663;-79
2021/12/15 08:48:18;;;;;;;;;;;;;;;20.67;35.70;101799.15;101435;1348;74959;-80
2021/12/15 08:50:47;;;;;;;;;;;;;;;20.69;35.57;101799.95;101241;1348;60503;-81
2021/12/15 08:53:14;;;;;;;;;;;;;;;20.68;35.75;101800.33;100949;1351;60515;-82
2021/12/15 08:55:41;;;;;;;;;;;;;;;20.58;35.61;101804.44;100734;1350;60574;-82
2021/12/15 08:58:07;;;;;;;;;;;;;;;20.45;35.65;101807.98;100894;1348;60524;-82
2021/12/15 09:00:33;;;;;;;;;;;;;;;20.38;35.67;101806.73;100907;1351;60644;-80
2021/12/15 09:03:01;;;;;;;;;;;;;;;20.34;35.65;101810.16;100836;1350;60513;-82
2021/12/15 09:05:27;;;;;;;;;;;;;;;20.30;35.75;101807.89;100808;1351;72869;-79
2021/12/15 09:07:54;;;;;;;;;;;;;;;20.28;35.78;101802.63;100927;1351;60632;-80
2021/12/15 09:10:20;;;;;;;;;;;;;;;20.27;36.03;101801.96;102530;1351;58375;-80
2021/12/15 09:12:45;;;;;;;;;;;;;;;20.23;35.86;101799.09;102613;1352;58383;-80
2021/12/15 09:15:11;;;;;;;;;;;;;;;20.21;35.89;101799.40;102716;1348;60223;-83
2021/12/15 09:17:40;;;;;;;;;;;;;;;20.22;35.90;101798.48;102693;1349;58962;-79
2021/12/15 09:20:07;;;;;;;;;;;;;;;20.24;35.91;101799.61;101335;1347;61279;-82
2021/12/15 09:22:33;;;;;;;;;;;;;;;20.26;35.87;101795.40;102802;1349;62774;-80
2021/12/15 09:24:59;;;;;;;;;;;;;;;20.28;35.75;101795.45;102758;1348;58707;-80
2021/12/15 09:27:24;;;;;;;;;;;;;;;20.32;35.83;101798.13;102807;1348;59456;-80
2021/12/15 09:29:50;;;;;;;;;;;;;;;20.36;35.86;101794.68;102716;1351;58634;-81
2021/12/15 09:32:15;;;;;;;;;;;;;;;20.40;35.85;101793.05;102811;1351;58545;-81
2021/12/15 09:34:41;;;;;;;;;;;;;;;20.43;35.67;101790.95;101828;1349;60466;-82
2021/12/15 09:37:28;;;;;;;;;;;;;;;;;;;;;
2021/12/15 09:39:59;;;;;;;;;;;;;;;20.45;35.66;101790.30;101346;1348;75070;-81
2021/12/15 09:42:51;;;;;;;;;;;;;;;20.41;35.53;101788.16;101477;1348;60584;-81
2021/12/15 10:02:58;;;;;;;;;;;;;;;19.83;35.32;101775.41;99971;1363;75225;-81
2021/12/15 10:05:37;;;;;;;;;;;;;;;19.81;35.40;101771.23;100117;1363;61333;-81
2021/12/15 10:19:57;;;;;;;;;;;;;;;19.86;35.51;101752.92;100236;1362;60639;-81
2021/12/15 10:22:45;;;;;;;;;;;;;;;19.87;35.48;101750.41;100353;1357;72867;-81
2021/12/15 10:25:27;;;;;;;;;;;;;;;19.87;35.32;101741.81;100939;1348;75166;-80
2021/12/15 10:28:14;;;;;;;;;;;;;;;19.89;35.37;101738.48;101145;1351;60423;-81
2021/12/15 10:30:41;;;;;;;;;;;;;;;19.92;35.50;101733.86;100630;1356;61582;-81
2021/12/15 10:33:10;;;;;;;;;;;;;;;19.93;35.51;101725.77;100547;1357;74095;-80
2021/12/15 10:35:52;;;;;;;;;;;;;;;19.96;35.38;101724.95;100411;1359;74185;-80
2021/12/15 10:38:29;;;;;;;;;;;;;;;19.99;35.40;101726.73;100970;1357;60547;-80
2021/12/15 10:41:07;;;;;;;;;;;;;;;20.03;35.40;101728.33;100945;1359;60549;-80
2021/12/15 10:43:36;;;;;;;;;;;;;;;20.06;35.47;101723.52;100905;1356;73039;-81
2021/12/15 10:46:22;;;;;;;;;;;;;;;20.09;35.48;101720.32;100607;1356;74307;-82
2021/12/15 10:48:50;;;;;;;;;;;;;;;20.14;35.43;101726.32;100624;1359;60497;-81
2021/12/15 10:51:28;;;;;;;;;;;;;;;20.14;35.45;101724.89;100665;1359;60584;-80
2021/12/15 10:54:49;;;;;;;;;;;;;;;20.10;35.42;101720.45;100519;1357;72885;-81
2021/12/15 10:57:15;;;;;;;;;;;;;;;20.03;35.47;101715.26;100146;1362;75134;-81
2021/12/15 10:59:56;;;;;;;;;;;;;;;;;;;;;
2021/12/15 11:02:27;;;;;;;;;;;;;;;19.87;35.56;101709.30;101388;1366;61513;-82
2021/12/15 11:05:29;;;;;;;;;;;;;;;19.82;35.66;101714.20;100377;1365;73672;-81
2021/12/15 11:07:58;;;;;;;;;;;;;;;19.80;35.65;101720.53;99706;1361;74251;-80
2021/12/15 11:10:28;;;;;;;;;;;;;;;19.78;35.76;101723.52;100303;1362;61240;-80
2021/12/15 11:12:57;;;;;;;;;;;;;;;19.76;35.90;101723.38;101783;1362;60896;-81
2021/12/15 11:15:27;;;;;;;;;;;;;;;19.77;35.93;101720.67;101734;1361;72278;-81
2021/12/15 11:18:03;;;;;;;;;;;;;;;19.77;35.87;101714.96;101831;1366;74088;-80
2021/12/15 11:20:30;;;;;;;;;;;;;;;19.78;35.89;101719.04;101115;1366;60638;-80
2021/12/15 11:22:59;;;;;;;;;;;;;;;19.78;36.05;101716.89;100408;1360;60556;-81
2021/12/15 11:25:34;;;;;;;;;;;;;;;19.77;35.88;101709.60;100497;1361;73879;-80
2021/12/15 11:28:03;;;;;;;;;;;;;;;19.75;35.86;101712.88;100403;1359;75512;-83
2021/12/15 11:30:37;;;;;;;;;;;;;;;19.72;35.66;101712.91;100374;1360;60458;-80
2021/12/15 11:33:23;;;;;;;;;;;;;;;19.67;35.83;101711.17;100560;1360;61619;-80
2021/12/15 11:35:58;;;;;;;;;;;;;;;19.65;35.84;101704.69;100644;1355;74100;-81
2021/12/15 11:38:37;;;;;;;;;;;;;;;19.62;35.80;101700.38;100920;1353;74248;-81
2021/12/15 11:41:13;;;;;;;;;;;;;;;19.55;35.78;101695.52;100880;1355;60664;-81
2021/12/15 11:44:05;;;;;;;;;;;;;;;19.53;35.94;101693.33;101251;1348;62467;-81
2021/12/15 11:46:40;;;;;;;;;;;;;;;19.52;35.65;101693.03;100702;1353;72763;-80
2021/12/15 11:49:06;;;;;;;;;;;;;;;19.49;35.76;101686.42;102225;1356;74605;-81
2021/12/15 11:51:52;;;;;;;;;;;;;;;19.47;35.85;101686.99;102171;1359;58985;-81
2021/12/15 11:54:36;;;;;;;;;;;;;;;19.41;35.81;101683.04;101614;1362;60252;-80
2021/12/15 11:57:26;;;;;;;;;;;;;;;19.33;35.76;101684.34;101595;1362;72657;-80
2021/12/15 12:00:12;;;;;;;;;;;;;;;19.33;35.98;101682.73;100988;1368;75486;-80
2021/12/15 12:02:38;;;;;;;;;;;;;;;19.35;35.96;101687.77;100945;1366;59132;-80
2021/12/15 12:05:11;;;;;;;;;;;;;;;19.36;36.06;101684.54;100746;1369;60849;-80
2021/12/15 12:07:43;;;;;;;;;;;;;;;19.30;35.89;101683.61;101009;1368;74655;-82
2021/12/15 12:10:12;;;;;;;;;;;;;;;19.24;35.92;101680.99;101060;1368;74083;-80
2021/12/15 12:12:47;;;;;;;;;;;;;;;19.26;35.97;101681.63;100189;1375;58927;-80
2021/12/15 12:15:13;;;;;;;;;;;;;;;19.31;36.03;101681.73;101055;1365;60635;-80
2021/12/15 12:17:39;;;;;;;;;;;;;;;19.37;36.02;101681.95;101020;1369;72669;-79
2021/12/15 12:20:13;;;;;;;;;;;;;;;19.44;35.98;101683.63;100975;1369;58695;-79
2021/12/15 12:22:39;;;;;;;;;;;;;;;19.48;35.98;101679.46;100594;1368;61269;-80
2021/12/15 12:25:13;;;;;;;;;;;;;;;19.51;35.95;101680.05;99887;1362;60631;-79
2021/12/15 12:27:39;;;;;;;;;;;;;;;19.52;35.89;101678.58;101318;1364;72849;-79
2021/12/15 12:30:08;;;;;;;;;;;;;;;19.52;35.88;101676.39;99925;1364;60525;-79
2021/12/15 12:32:34;;;;;;;;;;;;;;;19.54;35.86;101677.02;100393;1358;60585;-81
2021/12/15 12:35:04;;;;;;;;;;;;;;;19.56;36.11;101678.15;100669;1355;61405;-79
2021/12/15 12:37:39;;;;;;;;;;;;;;;19.58;35.92;101679.86;101116;1354;72713;-79
2021/12/15 12:40:25;;;;;;;;;;;;;;;19.58;36.06;101678.05;101145;1350;74056;-80
2021/12/15 12:43:01;;;;;;;;;;;;;;;19.59;36.14;101679.09;101286;1349;60421;-80
2021/12/15 12:45:34;;;;;;;;;;;;;;;19.60;36.04;101680.11;101220;1351;62406;-80
2021/12/15 13:00:09;;;;;;;;;;;;;;;19.50;36.04;101672.23;102581;1354;73537;-81
2021/12/15 13:02:43;;;;;;;;;;;;;;;19.50;36.05;101676.48;102542;1357;74035;-82
2021/12/15 13:05:27;;;;;;;;;;;;;;;19.52;35.99;101680.53;102674;1351;60980;-81
2021/12/15 13:07:54;;;;;;;;;;;;;;;19.53;35.98;101682.23;102819;1354;61302;-81
2021/12/15 13:10:20;;;;;;;;;;;;;;;19.53;35.90;101680.63;102803;1352;58825;-81
2021/12/15 13:12:48;;;;;;;;;;;;;;;19.54;35.84;101680.08;102746;1356;58261;-81
2021/12/15 13:15:18;;;;;;;;;;;;;;;19.55;35.96;101675.02;102722;1355;58818;-81
2021/12/15 13:17:59;;;;;;;;;;;;;;;19.59;36.02;101673.36;102760;1351;59473;-82
2021/12/15 13:20:26;;;;;;;;;;;;;;;19.65;36.25;101672.35;102814;1351;73839;-81
2021/12/15 13:31:33;;;;;;;;;;;;;;;19.83;36.10;101682.19;100764;1357;73817;-80
2021/12/15 13:34:06;;;;;;;;;;;;;;;19.86;36.07;101684.00;100946;1358;61267;-79
2021/12/15 13:37:07;;;;;;;;;;;;;;;;;;;;;
2021/12/15 13:40:14;;;;;;;;;;;;;;;19.91;36.00;101693.20;101005;1359;61556;-79
2021/12/15 13:43:03;;;;;;;;;;;;;;;19.95;35.94;101698.73;100962;1360;72803;-79
2021/12/15 13:46:20;;;;;;;;;;;;;;;19.97;35.93;101701.32;101177;1354;72896;-79
2021/12/15 13:49:27;;;;;;;;;;;;;;;19.98;35.83;101705.69;100760;1361;60412;-81
2021/12/15 13:52:57;;;;;;;;;;;;;;;;;;;;;
2021/12/15 13:56:02;;;;;;;;;;;;;;;;;;;;;
2021/12/15 13:59:13;;;;;;;;;;;;;;;19.85;35.69;101704.20;99989;1373;72888;-79
2021/12/15 14:02:21;;;;;;;;;;;;;;;;;;;;;
2021/12/15 14:05:37;;;;;;;;;;;;;;;19.83;35.91;101700.21;99511;1377;60473;-79
2021/12/15 14:09:28;;;;;;;;;;;;;;;19.85;35.92;101700.31;99351;1379;70478;-79
2021/12/15 14:12:00;;;;;;;;;;;;;;;19.86;35.96;101701.30;99299;1375;74204;-79
2021/12/15 14:15:37;;;;;;;;;;;;;;;;;;;;;
2021/12/15 14:18:45;;;;;;;;;;;;;;;;;;;;;
2021/12/15 14:28:41;;;;;;;;;;;;;;;19.93;36.12;101712.36;97317;1410;59919;-81
2021/12/15 14:32:13;;;;;;;;;;;;;;;;;;;;;
2021/12/15 14:35:26;;;;;;;;;;;;;;;19.89;36.12;101706.91;97978;1400;71721;-81
2021/12/15 14:38:31;;;;;;;;;;;;;;;;;;;;;
2021/12/15 14:45:21;;;;;;;;;;;;;;;19.79;35.94;101715.08;97525;1409;60534;-82
2021/12/15 14:48:29;;;;;;;;;;;;;;;19.78;35.88;101715.64;97601;1409;72197;-81
2021/12/15 14:55:05;;;;;;;;;;;;;;;;;;;;;
2021/12/15 14:58:32;;;;;;;;;;;;;;;;;;;;;
2021/12/15 15:01:32;;;;;;;;;;;;;;;;;;;;;
2021/12/15 15:05:01;;;;;;;;;;;;;;;19.73;35.83;101727.48;98189;1393;74033;-82
2021/12/15 15:11:31;;;;;;;;;;;;;;;;;;;;;
2021/12/15 15:14:50;;;;;;;;;;;;;;;;;;;;;
2021/12/15 15:18:13;;;;;;;;;;;;;;;19.73;35.87;101733.74;97989;1404;75705;-81
2021/12/15 15:22:14;;;;;;;;;;;;;;;19.73;35.86;101738.02;98478;1398;60454;-81
2021/12/15 15:38:16;;;;;;;;;;;;;;;19.72;35.98;101742.17;96698;1413;60524;-81
2021/12/15 15:41:34;;;;;;;;;;;;;;;;;;;;;
2021/12/15 15:44:51;;;;;;;;;;;;;;;;;;;;;
2021/12/15 15:55:11;;;;;;;;;;;;;;;;;;;;;
2021/12/15 15:58:39;;;;;;;;;;;;;;;19.70;36.09;101752.27;97157;1413;73088;-81
2021/12/15 16:02:06;;;;;;;;;;;;;;;19.71;36.04;101753.85;97273;1411;60830;-82
2021/12/15 16:11:54;;;;;;;;;;;;;;;19.70;36.14;101757.45;97042;1411;72850;-81
2021/12/15 16:18:52;;;;;;;;;;;;;;;19.71;36.11;101759.23;97525;1410;59573;-81
2021/12/15 16:25:44;;;;;;;;;;;;;;;;;;;;;
2021/12/15 16:29:11;;;;;;;;;;;;;;;19.71;36.14;101763.14;97087;1413;61577;-80
2021/12/15 16:36:30;;;;;;;;;;;;;;;19.70;36.27;101763.33;97538;1408;73128;-81
2021/12/15 16:39:41;;;;;;;;;;;;;;;;;;;;;
2021/12/15 16:43:08;;;;;;;;;;;;;;;;;;;;;
2021/12/15 16:49:26;;;;;;;;;;;;;;;;;;;;;
2021/12/15 16:52:45;;;;;;;;;;;;;;;19.69;36.34;101768.77;98590;1396;73104;-81
2021/12/15 16:59:38;;;;;;;;;;;;;;;19.69;36.34;101774.85;97536;1411;63052;-81
2021/12/15 17:02:34;;;;;;;;;;;;;;;;;;;;;
2021/12/15 17:06:07;;;;;;;;;;;;;;;19.69;36.37;101782.88;97209;1414;73183;-81
2021/12/15 17:09:19;;;;;;;;;;;;;;;;;;;;;
2021/12/15 17:12:48;;;;;;;;;;;;;;;19.68;36.35;101796.30;97003;1413;61142;-82
2021/12/15 17:19:35;;;;;;;;;;;;;;;;;;;;;
2021/12/15 17:22:55;;;;;;;;;;;;;;;;;;;;;
2021/12/15 17:26:02;;;;;;;;;;;;;;;19.67;36.45;101803.15;100400;1374;61732;-83
2021/12/15 17:33:28;;;;;;;;;;;;;;;19.67;36.42;101813.33;96400;1372;5368049;-82
2021/12/15 17:36:57;;;;;;;;;;;;;;;19.67;36.41;101818.36;99974;1381;71361;-81
2021/12/15 17:40:34;;;;;;;;;;;;;;;19.67;36.48;101819.25;99723;1375;59358;-81
2021/12/15 17:43:25;;;;;;;;;;;;;;;;;;;;;
2021/12/15 17:46:34;;;;;;;;;;;;;;;19.66;36.50;101822.13;99517;1382;73550;-81
2021/12/15 17:49:33;;;;;;;;;;;;;;;19.66;36.51;101818.04;99536;1379;72613;-79
2021/12/15 17:52:49;;;;;;;;;;;;;;;;;;;;;
2021/12/15 17:56:06;;;;;;;;;;;;;;;;;;;;;
2021/12/15 17:59:27;;;;;;;;;;;;;;;;;;;;;
2021/12/15 18:03:18;;;;;;;;;;;;;;;19.66;36.59;101825.55;99129;1390;71963;-83
2021/12/15 18:12:51;;;;;;;;;;;;;;;;;;;;;
2021/12/15 18:16:11;;;;;;;;;;;;;;;;;;;;;
2021/12/15 18:19:17;;;;;;;;;;;;;;;19.65;36.60;101840.06;99639;1378;61307;-82
2021/12/15 18:22:48;;;;;;;;;;;;;;;19.64;36.56;101838.30;99144;1387;60406;-82
2021/12/15 18:25:17;;;;;;;;;;;;;;;;;;;;;
2021/12/15 18:32:00;;;;;;;;;;;;;;;;;;;;;
2021/12/15 18:36:01;;;;;;;;;;;;;;;19.63;36.64;101852.14;98244;1402;60527;-82
2021/12/15 18:38:42;;;;;;;;;;;;;;;19.63;36.61;101855.52;97519;1403;74410;-82
2021/12/15 18:42:33;;;;;;;;;;;;;;;19.62;36.62;101856.44;97461;1409;74860;-82
2021/12/15 18:45:18;;;;;;;;;;;;;;;19.62;36.64;101860.36;97124;1415;60188;-82
2021/12/15 18:48:05;;;;;;;;;;;;;;;19.62;36.62;101864.16;97459;1409;60680;-82
2021/12/15 18:51:22;;;;;;;;;;;;;;;;;;;;;
2021/12/15 18:54:59;;;;;;;;;;;;;;;;;;;;;
2021/12/15 18:57:58;;;;;;;;;;;;;;;19.61;36.64;101879.36;97552;1409;60392;-82
2021/12/15 19:01:01;;;;;;;;;;;;;;;19.60;36.74;101880.27;98246;1404;60301;-82
2021/12/15 19:10:48;;;;;;;;;;;;;;;19.60;36.69;101887.42;98668;1394;61891;-81
2021/12/15 19:14:05;;;;;;;;;;;;;;;;;;;;;
2021/12/15 19:17:15;;;;;;;;;;;;;;;;;;;;;
2021/12/15 19:20:45;;;;;;;;;;;;;;;;;;;;;
2021/12/15 19:24:28;;;;;;;;;;;;;;;;;;;;;
2021/12/15 19:30:49;;;;;;;;;;;;;;;;;;;;;
2021/12/15 19:40:29;;;;;;;;;;;;;;;19.58;36.75;101912.52;97855;1406;62029;-81
2021/12/15 19:43:50;;;;;;;;;;;;;;;;;;;;;
2021/12/15 19:47:08;;;;;;;;;;;;;;;;;;;;;
2021/12/15 19:49:58;;;;;;;;;;;;;;;19.57;36.78;101925.95;97625;1406;60118;-82
2021/12/15 19:53:17;;;;;;;;;;;;;;;;;;;;;
2021/12/15 19:56:37;;;;;;;;;;;;;;;;;;;;;
2021/12/15 19:59:32;;;;;;;;;;;;;;;19.56;36.90;101938.85;98327;1401;76258;-81
2021/12/15 20:02:50;;;;;;;;;;;;;;;;;;;;;
2021/12/15 20:05:58;;;;;;;;;;;;;;;;;;;;;
2021/12/15 20:09:01;;;;;;;;;;;;;;;;;;;;;
2021/12/15 20:12:24;;;;;;;;;;;;;;;;;;;;;
2021/12/15 20:15:30;;;;;;;;;;;;;;;19.55;36.97;101943.04;96907;1413;59750;-82
2021/12/15 20:18:26;;;;;;;;;;;;;;;;;;;;;
2021/12/15 20:21:49;;;;;;;;;;;;;;;;;;;;;
2021/12/15 20:24:50;;;;;;;;;;;;;;;19.54;37.00;101944.16;97878;1402;72269;-82
2021/12/15 20:28:10;;;;;;;;;;;;;;;;;;;;;
2021/12/15 20:31:23;;;;;;;;;;;;;;;;;;;;;
2021/12/15 20:34:49;;;;;;;;;;;;;;;;;;;;;
2021/12/15 20:37:48;;;;;;;;;;;;;;;19.53;37.14;101934.00;96914;1411;74964;-82
2021/12/15 20:41:12;;;;;;;;;;;;;;;;;;;;;
2021/12/15 20:44:23;;;;;;;;;;;;;;;19.52;37.06;101931.54;97158;1413;60151;-81
2021/12/15 20:50:30;;;;;;;;;;;;;;;19.52;37.06;101930.48;97409;1395;72038;-82
2021/12/15 20:53:36;;;;;;;;;;;;;;;19.52;37.19;101937.62;98211;1395;59859;-82
2021/12/15 20:56:50;;;;;;;;;;;;;;;19.52;37.13;101941.23;98394;1394;59768;-82
2021/12/15 20:59:55;;;;;;;;;;;;;;;;;;;;;
2021/12/15 21:02:57;;;;;;;;;;;;;;;;;;;;;
2021/12/15 21:06:02;;;;;;;;;;;;;;;19.50;37.08;101943.58;98962;1392;59666;-81
2021/12/15 21:09:12;;;;;;;;;;;;;;;19.51;37.01;101943.58;99020;1386;59643;-81
2021/12/15 21:12:21;;;;;;;;;;;;;;;19.50;37.03;101942.19;98942;1386;71523;-81
2021/12/15 21:15:36;;;;;;;;;;;;;;;19.50;37.03;101941.67;98594;1398;72043;-81
2021/12/15 21:18:22;;;;;;;;;;;;;;;;;;;;;
2021/12/15 21:24:58;;;;;;;;;;;;;;;19.49;37.17;101947.23;97190;1411;71663;-81
2021/12/15 21:27:53;;;;;;;;;;;;;;;;;;;;;
2021/12/15 21:30:46;;;;;;;;;;;;;;;;;;;;;
2021/12/15 21:33:55;;;;;;;;;;;;;;;19.48;37.12;101945.52;96762;1413;60661;-82
2021/12/15 21:36:38;;;;;;;;;;;;;;;19.47;37.07;101947.68;96459;1416;74029;-81
2021/12/15 21:40:02;;;;;;;;;;;;;;;;;;;;;
2021/12/15 21:46:17;;;;;;;;;;;;;;;19.46;37.16;101939.33;96579;1421;60939;-82
2021/12/15 21:49:07;;;;;;;;;;;;;;;19.46;37.06;101938.79;96757;1416;73819;-81
2021/12/15 21:52:06;;;;;;;;;;;;;;;19.46;37.10;101932.73;96910;1412;73816;-81